Time;durP1;ratioP1;P1;durP2;ratioP2;P2;SDS_P1;SDS_P2;PMS_P1;PMS_P2;Temp;Humidity;BMP_temperature;BMP_pressure;BME280_temperature;BME280_humidity;BME280_pressure;Samples;Min_cycle;Max_cycle;Signal;HPM_P1;HPM_P2
2023/09/06 04:37:02;;;;;;;5.78;2.72;;;17.70;99.90;;;18.69;64.42;100989.53;6183906;23;20071;-86
2023/09/06 04:39:30;;;;;;;8.80;3.22;;;17.80;99.90;;;18.72;64.60;100986.34;6152923;23;20091;-86
2023/09/06 04:41:59;;;;;;;5.13;2.80;;;17.80;99.90;;;18.71;64.78;100982.81;6127826;23;20029;-87
2023/09/06 04:44:29;;;;;;;5.47;2.63;;;17.80;99.90;;;18.68;64.66;100987.88;6128533;23;20021;-88
2023/09/06 04:46:56;;;;;;;9.13;3.03;;;17.80;99.90;;;18.65;64.73;100983.00;6127846;23;20441;-88
2023/09/06 04:49:24;;;;;;;8.45;2.65;;;17.80;99.90;;;18.64;64.47;100986.75;6128156;23;20029;-88
2023/09/06 04:51:52;;;;;;;6.43;2.83;;;17.80;99.90;;;18.60;64.64;100991.84;6126939;23;20108;-87
2023/09/06 04:54:22;;;;;;;4.75;2.45;;;17.70;99.90;;;18.57;64.86;100991.53;6127838;23;20471;-86
2023/09/06 04:56:49;;;;;;;4.97;2.30;;;17.60;99.90;;;18.55;64.68;100994.50;6127441;23;20017;-87
2023/09/06 04:59:17;;;;;;;7.63;2.53;;;17.60;99.90;;;18.55;64.68;100991.78;6128208;23;20391;-87
2023/09/06 05:01:44;;;;;;;5.97;2.80;;;17.60;99.90;;;18.51;64.60;100994.16;6127324;23;20022;-86
2023/09/06 05:04:12;;;;;;;5.55;2.67;;;17.60;99.90;;;18.49;64.66;100990.88;6127517;23;20093;-86
2023/09/06 05:06:40;;;;;;;4.57;2.70;;;17.60;99.90;;;18.47;65.08;100998.44;6127434;23;20022;-86
2023/09/06 05:09:10;;;;;;;4.90;2.63;;;17.50;99.90;;;18.46;65.00;100996.81;6127703;23;20045;-86
2023/09/06 05:11:39;;;;;;;7.25;2.78;;;17.50;99.90;;;18.44;65.05;100998.13;6126695;23;20453;-87
2023/09/06 05:14:07;;;;;;;5.95;2.70;;;17.50;99.90;;;18.41;65.39;100999.44;6127214;23;20508;-87
2023/09/06 05:16:35;;;;;;;5.82;2.92;;;17.60;99.90;;;18.40;65.08;100992.41;6127006;23;20093;-87
2023/09/06 05:19:02;;;;;;;6.80;2.80;;;17.50;99.90;;;18.44;65.31;101001.63;6127822;23;20101;-87
2023/09/06 05:21:35;;;;;;;5.10;2.60;;;17.60;99.90;;;18.46;65.59;100998.69;6126282;23;20017;-86
2023/09/06 05:24:03;;;;;;;7.95;3.00;;;17.60;99.90;;;18.48;65.48;101004.66;6126723;23;20025;-88
2023/09/06 05:26:30;;;;;;;5.63;2.58;;;17.60;99.90;;;18.49;65.73;101008.97;6126622;23;20021;-88
2023/09/06 05:28:59;;;;;;;6.28;2.80;;;17.60;99.90;;;18.48;65.83;101008.16;6126762;23;21918;-89
2023/09/06 05:31:26;;;;;;;6.65;2.75;;;17.60;99.90;;;18.51;66.06;101010.38;6127453;23;20068;-88
2023/09/06 05:33:54;;;;;;;9.07;2.67;;;17.60;99.90;;;18.53;66.03;101012.81;6128184;23;20021;-88
2023/09/06 05:36:24;;;;;;;7.70;3.15;;;17.70;99.90;;;18.55;66.32;101018.00;6127947;23;20022;-87
2023/09/06 05:38:51;;;;;;;7.55;2.72;;;17.70;99.90;;;18.56;66.33;101014.22;6127766;23;20022;-88
2023/09/06 05:41:20;;;;;;;6.05;3.05;;;17.70;99.90;;;18.58;66.53;101009.38;6127510;23;20053;-86
2023/09/06 05:43:48;;;;;;;8.80;3.30;;;17.80;99.90;;;18.62;66.54;101016.72;6130496;23;20024;-86
2023/09/06 05:46:18;;;;;;;8.60;3.45;;;17.80;99.90;;;18.65;66.80;101018.13;6129692;23;20025;-86
2023/09/06 05:48:45;;;;;;;6.80;3.15;;;17.90;99.90;;;18.67;66.71;101019.50;6129514;23;20113;-86
2023/09/06 05:51:13;;;;;;;5.55;2.80;;;17.90;99.90;;;18.73;67.24;101023.09;6129221;23;20091;-86
2023/09/06 05:53:41;;;;;;;5.70;3.17;;;18.00;99.90;;;18.75;66.86;101026.38;6130109;23;20025;-86
2023/09/06 05:56:09;;;;;;;7.00;3.22;;;18.00;99.90;;;18.73;66.96;101023.09;6129572;23;20068;-86
2023/09/06 05:58:38;;;;;;;12.70;3.00;;;18.10;99.90;;;18.77;67.12;101035.03;6129978;23;20404;-86
2023/09/06 06:01:08;;;;;;;4.55;2.65;;;18.10;99.90;;;18.79;67.13;101027.50;6105837;23;20041;-85
2023/09/06 06:03:38;;;;;;;6.28;3.20;;;18.20;99.90;;;18.83;67.33;101039.44;6130102;23;20043;-85
2023/09/06 06:06:10;;;;;;;7.70;3.53;;;18.20;99.90;;;18.87;67.87;101034.34;6129571;23;20052;-85
2023/09/06 06:08:38;;;;;;;9.18;3.50;;;18.30;99.90;;;18.91;67.82;101036.28;6130477;23;20400;-86
2023/09/06 06:11:05;;;;;;;8.07;3.50;;;18.40;99.90;;;18.93;68.25;101025.22;6130468;23;20025;-83
2023/09/06 06:13:33;;;;;;;10.02;4.00;;;18.40;99.90;;;18.98;68.87;101027.97;6130756;23;20025;-83
2023/09/06 06:16:00;;;;;;;9.20;3.50;;;18.50;99.90;;;19.01;68.65;101036.41;6129671;23;20645;-83
2023/09/06 06:18:28;;;;;;;7.55;3.38;;;18.60;99.90;;;19.05;68.79;101034.03;6131246;23;20021;-82
2023/09/06 06:20:58;;;;;;;10.43;3.45;;;18.60;99.90;;;19.12;68.91;101031.91;6130366;23;20020;-82
2023/09/06 06:23:25;;;;;;;11.03;4.30;;;18.70;99.90;;;19.20;68.78;101038.78;6157229;23;20025;-82
2023/09/06 06:28:42;;;;;;;11.25;4.28;;;19.00;99.90;;;19.30;68.64;101045.09;6243454;23;20031;-80
2023/09/06 06:31:09;;;;;;;10.10;3.97;;;19.10;99.90;;;19.35;68.69;101044.34;6244965;23;20016;-81
2023/09/06 06:33:38;;;;;;;9.52;4.10;;;19.20;99.90;;;19.40;68.07;101038.97;6244904;23;20024;-81
2023/09/06 06:36:07;;;;;;;10.40;3.47;;;19.20;99.90;;;19.47;67.86;101041.47;6244869;23;20115;-81
2023/09/06 06:38:34;;;;;;;8.65;4.07;;;19.30;99.90;;;19.50;67.48;101039.06;6192783;23;20480;-81
2023/09/06 06:41:02;;;;;;;9.57;4.13;;;19.40;99.90;;;19.63;67.26;101042.47;6243752;23;20012;-81
2023/09/06 06:43:33;;;;;;;10.90;4.45;;;19.50;99.90;;;19.69;67.07;101038.72;6217778;23;20023;-81
2023/09/06 06:46:04;;;;;;;8.80;4.20;;;19.50;99.90;;;19.80;67.23;101043.97;6244584;23;20078;-80
2023/09/06 06:48:31;;;;;;;11.38;3.88;;;19.60;99.90;;;19.91;66.83;101042.16;6244590;23;20465;-81
2023/09/06 06:50:58;;;;;;;8.50;3.47;;;19.70;99.90;;;20.00;66.23;101043.28;6244620;23;20051;-81
2023/09/06 06:53:27;;;;;;;12.32;3.83;;;19.80;99.90;;;20.10;66.75;101053.38;6244925;23;20413;-81
2023/09/06 06:55:54;;;;;;;10.60;4.28;;;19.90;99.90;;;20.17;66.52;101053.19;6243894;23;20359;-81
2023/09/06 06:58:21;;;;;;;9.07;3.97;;;19.90;99.90;;;20.21;65.82;101049.69;6245139;23;20042;-81
2023/09/06 07:00:49;;;;;;;9.40;4.13;;;20.00;99.90;;;20.25;65.78;101055.38;6244453;23;20016;-81
2023/09/06 07:03:16;;;;;;;9.13;4.00;;;20.00;99.90;;;20.29;66.27;101049.19;6243604;23;20023;-81
2023/09/06 07:05:43;;;;;;;14.38;4.05;;;20.10;99.90;;;20.32;65.23;101051.38;6243413;23;20024;-79
2023/09/06 07:08:11;;;;;;;10.07;3.80;;;20.20;99.90;;;20.40;64.65;101060.91;6243736;23;20406;-79
2023/09/06 07:10:39;;;;;;;7.63;3.42;;;20.30;99.90;;;20.48;65.03;101049.59;6241353;23;20036;-80
2023/09/06 07:13:06;;;;;;;6.90;3.83;;;20.40;99.90;;;20.55;65.53;101055.63;6243344;23;20020;-80
2023/09/06 07:15:33;;;;;;;10.43;4.07;;;20.40;99.90;;;20.62;65.13;101049.13;6242754;23;20016;-79
2023/09/06 07:18:04;;;;;;;9.20;3.67;;;20.60;99.90;;;20.72;64.65;101049.97;6244043;23;20027;-80
2023/09/06 07:20:32;;;;;;;15.07;3.72;;;20.70;99.90;;;20.80;64.30;101049.50;6242297;23;20028;-80
2023/09/06 07:22:59;;;;;;;9.70;3.67;;;20.80;99.90;;;20.90;64.23;101045.19;6243399;23;20020;-80
2023/09/06 07:25:28;;;;;;;7.10;3.50;;;20.80;99.90;;;20.96;63.93;101055.78;6243476;23;20032;-80
2023/09/06 07:27:59;;;;;;;8.90;3.58;;;21.00;99.90;;;21.03;63.23;101052.81;6243125;23;20702;-80
2023/09/06 07:30:26;;;;;;;10.48;3.75;;;21.00;99.90;;;21.11;63.17;101059.63;6242794;23;20024;-80
2023/09/06 07:32:53;;;;;;;8.32;3.40;;;21.10;99.90;;;21.14;61.96;101056.38;6216951;23;20016;-80
2023/09/06 07:35:20;;;;;;;12.00;3.55;;;21.10;99.90;;;21.21;62.05;101057.75;6216672;23;20439;-80
2023/09/06 07:37:48;;;;;;;9.43;3.15;;;21.20;99.90;;;21.30;62.79;101060.75;6243655;23;20024;-80
2023/09/06 07:40:15;;;;;;;8.63;3.50;;;21.40;99.90;;;21.41;64.09;101061.63;6242687;23;20103;-80
2023/09/06 07:42:42;;;;;;;8.60;3.13;;;21.50;99.90;;;21.53;64.01;101057.56;6244149;23;20051;-80
2023/09/06 07:45:12;;;;;;;6.75;3.40;;;21.60;99.90;;;21.67;62.46;101067.88;6243522;23;20048;-80
2023/09/06 07:47:39;;;;;;;6.78;3.58;;;21.70;99.90;;;21.75;62.13;101057.31;6244360;23;20062;-81
2023/09/06 07:50:09;;;;;;;7.95;4.10;;;21.80;99.90;;;21.82;61.28;101062.47;6242788;23;20051;-81
2023/09/06 07:52:36;;;;;;;7.30;3.35;;;21.90;99.90;;;21.90;61.21;101063.81;6243871;23;20020;-80
2023/09/06 07:55:05;;;;;;;6.93;3.20;;;22.00;99.90;;;21.98;61.08;101063.28;6244077;23;20016;-81
2023/09/06 07:57:32;;;;;;;12.77;3.85;;;22.10;99.90;;;22.10;61.64;101063.81;6243571;23;20095;-81
2023/09/06 07:59:59;;;;;;;9.35;3.63;;;22.20;99.90;;;22.20;61.40;101063.00;6242680;23;20061;-81
2023/09/06 08:02:28;;;;;;;11.73;3.25;;;22.30;99.90;;;22.27;61.49;101058.94;6216649;23;20020;-80
2023/09/06 08:04:55;;;;;;;5.93;3.30;;;22.40;99.90;;;22.33;62.15;101071.41;6216075;23;20467;-81
2023/09/06 08:07:22;;;;;;;6.90;3.35;;;22.50;99.90;;;22.40;61.48;101070.31;6243195;23;20526;-81
2023/09/06 08:09:50;;;;;;;7.13;3.50;;;22.50;99.90;;;22.47;61.41;101065.41;6242950;23;20031;-80
2023/09/06 08:12:17;;;;;;;5.25;3.28;;;22.60;99.90;;;22.48;59.91;101065.13;6243183;23;20022;-80
2023/09/06 08:14:44;;;;;;;7.30;3.45;;;22.60;99.90;;;22.51;60.30;101063.78;6243725;23;20081;-80
2023/09/06 08:17:12;;;;;;;5.97;3.50;;;22.70;99.90;;;22.62;59.15;101055.28;6242408;23;20047;-80
2023/09/06 08:19:41;;;;;;;8.02;3.55;;;22.80;99.90;;;22.70;58.21;101064.00;6241867;23;20051;-80
2023/09/06 08:22:08;;;;;;;6.22;3.25;;;22.90;99.90;;;22.69;58.86;101055.00;6242852;23;20071;-80
2023/09/06 08:24:35;;;;;;;9.60;3.40;;;22.90;99.90;;;22.72;59.46;101059.88;6243343;23;20035;-81
2023/09/06 08:27:05;;;;;;;7.35;2.92;;;22.90;99.90;;;22.82;58.42;101053.59;6216763;23;20023;-80
2023/09/06 08:29:32;;;;;;;7.53;3.42;;;23.00;99.90;;;22.87;58.18;101045.41;6215979;23;20020;-80
2023/09/06 08:31:59;;;;;;;6.70;3.42;;;23.10;99.90;;;22.95;57.89;101053.03;6215367;23;20027;-80
2023/09/06 08:34:27;;;;;;;8.75;3.53;;;23.20;99.90;;;22.91;56.70;101041.06;6243416;23;20019;-80
2023/09/06 08:36:56;;;;;;;6.55;3.30;;;23.20;98.70;;;23.00;58.11;101049.47;6216489;23;20455;-80
2023/09/06 08:39:23;;;;;;;6.72;3.20;;;23.20;99.90;;;23.07;59.07;101039.88;6243330;23;20031;-80
2023/09/06 08:41:52;;;;;;;6.95;3.38;;;23.30;99.90;;;23.12;59.03;101042.56;6214564;23;20020;-80
2023/09/06 08:44:21;;;;;;;5.72;3.30;;;23.40;99.90;;;23.18;59.30;101045.25;6243018;23;20016;-81
2023/09/06 08:46:52;;;;;;;7.65;3.75;;;23.40;99.90;;;23.27;59.06;101040.84;6243693;23;20031;-81
2023/09/06 08:49:21;;;;;;;7.20;3.42;;;23.50;99.90;;;23.27;58.44;101040.84;6242856;23;20766;-81
2023/09/06 08:51:50;;;;;;;8.98;3.40;;;23.50;99.90;;;23.30;56.74;101043.03;6241924;23;20103;-81
2023/09/06 08:54:19;;;;;;;8.98;3.20;;;23.50;98.30;;;23.31;56.47;101045.47;6216366;23;20427;-80
2023/09/06 08:56:46;;;;;;;6.68;3.95;;;23.60;98.00;;;23.40;57.44;101042.97;6215965;23;20031;-81
2023/09/06 08:59:14;;;;;;;6.55;3.30;;;23.70;99.00;;;23.45;55.79;101050.28;6242982;23;20056;-81
2023/09/06 09:01:41;;;;;;;12.25;3.65;;;23.70;97.10;;;23.48;55.68;101045.09;6241817;23;20012;-80
2023/09/06 09:04:09;;;;;;;10.10;3.42;;;23.80;96.70;;;23.54;55.96;101046.66;6243058;23;20047;-81
2023/09/06 09:06:36;;;;;;;7.82;3.60;;;23.90;97.10;;;23.69;55.05;101042.22;6243210;23;20028;-80
2023/09/06 09:09:18;;;;;;;6.32;3.63;;;24.00;96.10;;;23.76;54.69;101040.78;6242586;23;20051;-80
2023/09/06 09:11:49;;;;;;;7.50;3.88;;;24.10;95.80;;;23.81;52.98;101042.66;6242817;23;20132;-81
2023/09/06 09:14:21;;;;;;;;;;;24.10;93.30;;;23.86;54.76;101050.78;6243454;23;20050;-81
2023/09/06 09:16:55;;;;;;;6.05;3.60;;;24.20;95.20;;;23.92;52.87;101043.41;6243052;23;20062;-80
2023/09/06 09:19:23;;;;;;;6.53;3.47;;;24.30;93.30;;;23.97;52.51;101056.97;6243101;23;20036;-81
2023/09/06 09:21:51;;;;;;;7.25;3.70;;;24.30;92.80;;;24.03;52.37;101055.84;6242032;23;20099;-80
2023/09/06 09:24:27;;;;;;;10.15;3.70;;;24.40;92.40;;;24.09;54.22;101052.75;6242703;23;20046;-80
2023/09/06 09:26:56;;;;;;;9.38;3.50;;;24.40;94.40;;;24.11;54.41;101052.50;6242351;23;20044;-80
2023/09/06 09:29:23;;;;;;;6.80;3.60;;;24.40;94.40;;;24.14;55.54;101049.97;6243014;23;20440;-80
2023/09/06 09:31:51;;;;;;;9.60;3.97;;;24.50;96.00;;;24.18;54.71;101049.41;6215071;23;20044;-80
2023/09/06 09:34:18;;;;;;;6.25;3.83;;;24.50;94.80;;;24.10;52.83;101046.19;6215841;23;20070;-80
2023/09/06 09:36:51;;;;;;;5.60;3.50;;;24.50;92.60;;;24.04;52.61;101050.09;6242481;23;20111;-81
2023/09/06 09:39:19;;;;;;;7.22;3.58;;;24.40;92.10;;;24.03;53.30;101048.47;6215909;23;20020;-81
2023/09/06 09:41:47;;;;;;;6.35;3.85;;;24.40;93.00;;;24.13;53.67;101053.81;6242068;23;20030;-80
2023/09/06 09:44:16;;;;;;;7.38;3.90;;;24.40;93.60;;;24.17;51.73;101054.06;6242899;23;20382;-80
2023/09/06 09:46:44;;;;;;;6.82;4.00;;;24.50;91.40;;;24.25;50.56;101049.88;6243216;23;20079;-80
2023/09/06 09:49:13;;;;;;;5.82;3.60;;;24.50;90.00;;;24.30;49.90;101047.09;6243016;23;20818;-80
2023/09/06 09:51:41;;;;;;;6.05;3.80;;;24.60;88.90;;;24.33;50.05;101051.97;6241797;23;20444;-81
2023/09/06 09:54:13;;;;;;;8.85;3.67;;;24.70;88.90;;;24.35;48.18;101042.44;6242568;23;20012;-80
2023/09/06 09:56:44;;;;;;;8.32;3.85;;;24.70;86.40;;;24.35;48.52;101041.59;6243091;23;20351;-80
2023/09/06 09:59:16;;;;;;;6.57;3.70;;;24.70;86.60;;;24.36;48.16;101041.34;6242417;23;20518;-81
2023/09/06 10:01:44;;;;;;;8.18;3.88;;;24.70;86.20;;;24.33;47.45;101043.81;6242237;23;20023;-80
2023/09/06 10:04:13;;;;;;;6.53;3.70;;;24.70;85.30;;;24.35;48.76;101036.13;6215068;23;20020;-81
2023/09/06 10:06:41;;;;;;;6.97;3.70;;;24.70;86.90;;;24.41;49.19;101043.22;6242470;23;20020;-81
2023/09/06 10:09:12;;;;;;;8.80;3.97;;;24.80;87.30;;;24.43;50.51;101026.56;6242581;23;20016;-81
2023/09/06 10:11:41;;;;;;;6.15;3.70;;;24.80;88.70;;;24.39;50.80;101032.56;6215002;23;20027;-81
2023/09/06 10:14:12;;;;;;;7.07;3.92;;;24.80;88.90;;;24.44;50.89;101033.63;6241883;23;20401;-80
2023/09/06 10:16:41;;;;;;;6.63;4.25;;;24.80;89.50;;;24.42;50.77;101023.00;6243319;23;20020;-81
2023/09/06 10:19:09;;;;;;;10.40;4.50;;;24.80;89.10;;;24.47;50.84;101027.59;6242452;23;20091;-80
2023/09/06 10:21:36;;;;;;;6.63;3.33;;;24.80;88.90;;;24.52;51.08;101024.81;6242526;23;20017;-79
2023/09/06 10:24:09;;;;;;;8.73;3.92;;;24.90;89.30;;;24.52;50.46;101022.88;6215233;23;20068;-80
2023/09/06 10:26:39;;;;;;;8.75;3.65;;;24.90;88.50;;;24.50;48.98;101021.53;6242545;23;20051;-80
2023/09/06 10:29:10;;;;;;;7.85;3.95;;;24.90;86.40;;;24.57;50.96;101022.81;6244001;23;20115;-80
2023/09/06 10:31:49;;;;;;;7.72;3.92;;;25.00;89.10;;;24.63;50.22;101031.75;6243481;23;20023;-80
2023/09/06 10:34:17;;;;;;;7.90;4.00;;;25.00;88.50;;;24.64;49.92;101033.38;6244847;23;20035;-80
2023/09/06 10:36:53;;;;;;;5.75;3.45;;;25.00;87.70;;;24.60;49.34;101024.97;6243802;23;20024;-80
2023/09/06 10:39:22;;;;;;;6.65;3.63;;;25.00;86.90;;;24.54;48.23;101017.13;6244520;23;20027;-80
2023/09/06 10:42:18;;;;;;;6.57;3.58;;;24.90;86.00;;;24.61;49.39;101021.16;6216055;23;20026;-80
2023/09/06 10:45:12;;;;;;;8.02;3.85;;;25.00;87.20;;;24.64;49.68;101026.03;6244496;23;20047;-80
2023/09/06 10:47:42;;;;;;;5.82;3.70;;;25.00;87.30;;;24.72;47.91;101016.38;6243618;23;20048;-79
2023/09/06 10:50:17;;;;;;;7.70;3.60;;;25.10;85.00;;;24.76;48.67;101013.88;6243293;23;20106;-80
2023/09/06 10:52:48;;;;;;;7.47;3.65;;;25.20;86.00;;;24.85;48.07;101009.38;6243839;23;20326;-79
2023/09/06 10:55:20;;;;;;;7.50;4.10;;;25.30;85.20;;;24.95;48.97;101014.72;6217055;23;20031;-79
2023/09/06 10:58:03;;;;;;;6.05;3.70;;;25.40;85.90;;;24.97;48.02;101015.22;6217323;23;20107;-80
2023/09/06 11:00:32;;;;;;;5.95;3.80;;;25.40;84.70;;;24.97;47.16;101009.75;6243695;23;20357;-79
2023/09/06 11:03:17;;;;;;;5.30;3.55;;;25.40;83.10;;;24.94;47.14;101010.34;6243995;23;20019;-79
2023/09/06 11:05:54;;;;;;;6.65;3.97;;;25.30;83.00;;;25.01;47.62;101018.16;6244359;23;20093;-80
2023/09/06 11:08:32;;;;;;;7.28;3.80;;;25.50;84.00;;;25.02;46.54;101017.06;6244724;23;20028;-79
2023/09/06 11:11:04;;;;;;;7.88;3.90;;;25.40;82.60;;;24.99;46.20;101007.56;6242708;23;20019;-79
2023/09/06 11:13:33;;;;;;;5.35;3.70;;;25.40;81.80;;;25.04;46.44;101004.75;6243874;23;20455;-79
2023/09/06 11:16:01;;;;;;;6.13;3.80;;;25.50;82.30;;;25.09;46.14;101001.97;6244051;23;20022;-80
2023/09/06 11:18:32;;;;;;;6.88;3.45;;;25.50;81.80;;;25.07;46.30;101000.63;6243857;23;20513;-79
2023/09/06 11:21:00;;;;;;;;;;;25.50;81.60;;;25.14;47.39;100999.19;6243099;23;20024;-79
2023/09/06 11:23:27;;;;;;;5.95;3.53;;;25.50;83.10;;;25.15;45.47;100997.25;6216394;23;19973;-79
2023/09/06 11:26:01;;;;;;;8.15;3.60;;;25.60;80.50;;;25.16;44.96;100996.94;6243806;23;20451;-80
2023/09/06 11:28:33;;;;;;;5.35;3.63;;;25.60;79.80;;;25.18;45.05;100993.91;6243898;23;20020;-80
2023/09/06 11:31:03;;;;;;;5.38;3.22;;;25.60;80.00;;;25.20;44.35;100990.91;6242690;23;20024;-79
2023/09/06 11:33:32;;;;;;;5.22;3.20;;;25.60;78.20;;;25.17;43.32;100989.56;6244235;23;20040;-80
2023/09/06 11:36:03;;;;;;;7.70;3.83;;;25.50;77.00;;;25.19;45.50;100992.81;6243337;23;20027;-80
2023/09/06 11:38:35;;;;;;;5.88;3.63;;;25.60;79.80;;;25.27;44.63;100985.88;6216577;23;20111;-80
2023/09/06 11:41:07;;;;;;;7.55;3.92;;;25.70;78.90;;;25.27;45.40;100983.94;6242529;23;20059;-80
2023/09/06 11:43:35;;;;;;;5.97;3.42;;;25.70;79.70;;;25.27;44.10;100989.41;6244010;23;20055;-79
2023/09/06 11:46:03;;;;;;;5.50;3.35;;;25.70;78.00;;;25.28;44.23;100976.56;6216795;23;20613;-79
2023/09/06 11:48:35;;;;;;;6.47;3.47;;;25.70;78.40;;;25.25;42.65;100980.72;6243801;23;20087;-79
2023/09/06 11:51:08;;;;;;;6.85;3.67;;;25.60;76.20;;;25.29;42.89;100980.94;6242689;23;20447;-82
2023/09/06 11:53:40;;;;;;;5.65;3.15;;;25.70;76.00;;;25.30;42.13;100983.34;6243559;23;20016;-80
2023/09/06 11:56:11;;;;;;;6.32;3.40;;;25.70;74.70;;;25.27;42.64;100977.69;6243183;23;20030;-80
2023/09/06 11:58:49;;;;;;;5.32;3.53;;;25.60;75.70;;;25.27;42.73;100974.94;6244157;23;20024;-80
2023/09/06 12:01:20;;;;;;;7.75;3.65;;;25.60;75.40;;;25.30;42.67;100980.63;6214694;23;20031;-80
2023/09/06 12:03:50;;;;;;;6.57;3.20;;;25.70;75.40;;;25.34;42.16;100970.75;6243754;23;20108;-80
2023/09/06 12:06:18;;;;;;;5.43;3.42;;;25.70;74.20;;;25.38;41.01;100965.50;6243657;23;20031;-80
2023/09/06 12:08:45;;;;;;;5.90;3.60;;;25.80;73.10;;;25.41;41.85;100967.63;6216670;23;20486;-80
2023/09/06 12:11:18;;;;;;;5.97;3.40;;;25.80;73.50;;;25.42;41.63;100961.03;6242964;23;20043;-80
2023/09/06 12:13:47;;;;;;;5.22;3.20;;;25.80;73.50;;;25.45;43.00;100973.31;6244272;23;20032;-80
2023/09/06 12:16:15;;;;;;;5.03;3.10;;;25.80;75.00;;;25.52;41.10;100963.59;6243650;23;20016;-81
2023/09/06 12:18:43;;;;;;;4.60;2.63;;;25.90;72.60;;;25.58;39.66;100956.94;6243352;23;20031;-81
2023/09/06 12:21:11;;;;;;;5.00;3.00;;;26.00;70.60;;;25.67;41.21;100957.09;6240957;23;20016;-80
2023/09/06 12:23:39;;;;;;;5.90;3.00;;;26.10;72.00;;;25.63;39.63;100958.78;6243136;23;20016;-80
2023/09/06 12:28:39;;;;;;;5.20;3.08;;;26.00;70.80;;;25.69;39.97;100955.66;6157917;23;20032;-83
2023/09/06 12:31:06;;;;;;;5.85;2.70;;;26.10;70.30;;;25.68;40.54;100959.50;6157580;23;20044;-83
2023/09/06 12:33:34;;;;;;;5.65;2.90;;;26.00;71.70;;;25.72;42.24;100946.06;6134529;23;20053;-83
2023/09/06 12:36:03;;;;;;;7.13;3.05;;;26.10;73.50;;;25.83;41.08;100947.50;6185316;23;20082;-83
2023/09/06 12:38:33;;;;;;;7.55;3.00;;;26.20;72.30;;;25.82;42.11;100947.81;6159499;23;20356;-83
2023/09/06 12:41:03;;;;;;;7.43;3.53;;;26.20;73.00;;;25.84;41.90;100951.06;6183621;23;20018;-83
2023/09/06 12:43:34;;;;;;;6.10;3.17;;;26.20;72.40;;;25.83;41.27;100943.97;6185223;23;20040;-83
2023/09/06 12:46:02;;;;;;;;;;;26.20;71.90;;;25.80;40.17;100939.91;6160856;23;20044;-83
2023/09/06 12:48:30;;;;;;;4.95;3.10;;;26.20;70.50;;;25.79;41.23;100948.41;6159132;23;20351;-83
2023/09/06 12:50:57;;;;;;;4.65;2.92;;;26.20;72.00;;;25.80;40.80;100948.09;6158118;23;20021;-84
2023/09/06 12:53:24;;;;;;;5.85;3.10;;;26.20;71.30;;;25.80;40.19;100936.38;6185671;23;20016;-83
2023/09/06 12:55:53;;;;;;;5.10;2.75;;;26.10;69.70;;;25.81;40.98;100943.44;6159097;23;20021;-83
2023/09/06 12:58:20;;;;;;;5.18;2.78;;;26.20;70.90;;;25.79;39.44;100938.28;6158592;23;20020;-83
2023/09/06 13:00:48;;;;;;;7.25;2.78;;;26.10;68.90;;;25.77;39.44;100937.81;6157383;23;20454;-83
2023/09/06 13:03:17;;;;;;;5.68;2.53;;;26.10;68.90;;;25.83;40.02;100935.78;6158474;23;20071;-83
2023/09/06 13:05:45;;;;;;;5.15;2.90;;;26.20;69.80;;;25.87;39.66;100939.53;6158575;23;20029;-83
2023/09/06 13:08:13;;;;;;;6.13;2.47;;;26.20;68.60;;;25.86;39.40;100929.69;6184824;23;20508;-83
2023/09/06 13:10:40;;;;;;;6.45;2.63;;;26.20;68.50;;;25.91;39.04;100935.06;6157296;23;20025;-83
2023/09/06 13:13:09;;;;;;;5.53;2.70;;;26.20;67.10;;;25.92;38.49;100931.22;6185013;23;20028;-83
2023/09/06 13:15:36;;;;;;;5.00;2.50;;;26.20;66.20;;;25.89;38.10;100927.16;6157992;23;20052;-84
2023/09/06 13:18:04;;;;;;;4.78;2.55;;;26.10;65.80;;;25.89;38.12;100923.63;6158341;23;20013;-86
2023/09/06 13:20:32;;;;;;;5.28;2.60;;;26.20;65.80;;;25.92;38.61;100920.31;6157323;23;20025;-85
2023/09/06 13:22:59;;;;;;;5.20;2.58;;;26.20;66.30;;;25.94;38.23;100920.78;6182297;23;20028;-87
2023/09/06 13:25:27;;;;;;;4.25;2.60;;;26.20;65.20;;;25.96;38.70;100921.28;6182910;23;20028;-87
2023/09/06 13:27:54;;;;;;;4.30;2.60;;;26.20;66.10;;;25.98;39.40;100924.53;6152967;23;20021;-87
2023/09/06 13:30:23;;;;;;;4.40;2.60;;;26.30;67.30;;;26.02;38.98;100922.84;6127593;23;20021;-87
2023/09/06 13:32:50;;;;;;;5.78;2.60;;;26.30;66.40;;;26.05;38.64;100921.41;6153455;23;20018;-87
2023/09/06 13:35:18;;;;;;;4.32;2.65;;;26.40;65.80;;;26.05;38.68;100913.19;6153204;23;20424;-87
2023/09/06 13:37:45;;;;;;;5.38;2.50;;;26.40;65.30;;;26.03;38.74;100912.69;6177736;23;20048;-87
2023/09/06 13:40:14;;;;;;;5.72;2.70;;;26.40;65.60;;;26.05;39.68;100916.72;6151692;23;20049;-87
2023/09/06 13:42:41;;;;;;;5.03;2.90;;;26.40;67.20;;;26.09;39.44;100903.28;6152744;23;20022;-87
2023/09/06 13:45:10;;;;;;;6.57;2.80;;;26.40;67.20;;;26.13;41.10;100898.81;6153159;23;20483;-87
2023/09/06 13:47:39;;;;;;;4.82;2.97;;;26.50;69.50;;;26.15;41.04;100897.38;6152748;23;20021;-87
2023/09/06 13:50:08;;;;;;;4.75;3.03;;;26.50;69.60;;;26.22;42.19;100890.72;6151447;23;20357;-87
2023/09/06 13:52:35;;;;;;;6.38;3.10;;;26.60;71.10;;;26.23;40.96;100890.41;6154715;23;20020;-87
2023/09/06 13:55:03;;;;;;;7.68;3.15;;;26.60;69.60;;;26.27;41.13;100890.59;6152930;23;20022;-86
2023/09/06 13:57:31;;;;;;;5.95;3.40;;;26.60;69.30;;;26.31;41.22;100886.94;6152705;23;20018;-87
2023/09/06 13:59:58;;;;;;;5.63;3.03;;;26.70;69.50;;;26.30;41.92;100896.25;6153215;23;20017;-87
2023/09/06 14:02:26;;;;;;;8.65;2.90;;;26.70;70.30;;;26.26;41.85;100889.81;6153140;23;20024;-87
2023/09/06 14:04:57;;;;;;;7.53;3.10;;;26.60;70.30;;;26.25;42.43;100881.88;6106408;23;20029;-86
2023/09/06 14:07:24;;;;;;;;;;;26.60;71.70;;;26.25;42.47;100884.63;6155655;23;20096;-84
2023/09/06 14:09:51;;;;;;;6.15;3.08;;;26.60;71.50;;;26.25;41.73;100884.63;6177793;23;20007;-81
2023/09/06 14:12:18;;;;;;;7.03;3.13;;;26.60;70.70;;;26.27;41.85;100885.13;6154777;23;20049;-80
2023/09/06 14:14:45;;;;;;;5.78;3.15;;;26.60;70.50;;;26.33;42.72;100886.63;6154948;23;20077;-80
2023/09/06 14:17:12;;;;;;;5.03;2.83;;;26.70;72.10;;;26.32;41.16;100887.75;6155956;23;20022;-80
2023/09/06 14:19:40;;;;;;;6.30;2.60;;;26.60;70.30;;;26.34;41.21;100882.78;6154730;23;20052;-80
2023/09/06 14:22:10;;;;;;;5.00;3.05;;;26.70;69.30;;;26.34;41.82;100880.03;6155616;23;20500;-80
2023/09/06 14:24:37;;;;;;;7.00;2.88;;;26.70;70.80;;;26.33;41.54;100881.16;6156049;23;20013;-80
2023/09/06 14:27:05;;;;;;;5.28;3.08;;;26.70;70.20;;;26.32;40.75;100882.28;6154237;23;20400;-80
2023/09/06 14:29:33;;;;;;;4.95;2.78;;;26.70;68.90;;;26.39;41.18;100880.75;6156081;23;20520;-80
2023/09/06 14:32:00;;;;;;;5.38;2.92;;;26.70;69.20;;;26.38;41.04;100879.13;6155712;23;20555;-80
2023/09/06 14:34:28;;;;;;;5.70;3.20;;;26.70;69.70;;;26.34;41.80;100880.03;6156632;23;20092;-80
2023/09/06 14:36:55;;;;;;;6.30;3.03;;;26.60;70.30;;;26.35;41.59;100885.22;6156269;23;20087;-80
2023/09/06 14:39:24;;;;;;;5.53;3.22;;;26.70;70.50;;;26.33;41.48;100870.22;6157248;23;20080;-85
2023/09/06 14:41:51;;;;;;;8.23;2.90;;;26.60;69.70;;;26.37;40.55;100872.03;6153959;23;20049;-91
2023/09/06 14:44:18;;;;;;;4.90;2.90;;;26.70;68.70;;;26.36;40.85;100864.97;6179768;23;20041;-83
2023/09/06 14:46:48;;;;;;;5.43;2.72;;;26.60;69.20;;;26.38;41.20;100872.84;6153655;23;20516;-84
2023/09/06 14:49:15;;;;;;;6.30;3.22;;;26.60;69.50;;;26.41;41.39;100866.78;6154000;23;20022;-84
2023/09/06 14:51:42;;;;;;;9.82;3.60;;;26.80;69.20;;;26.44;40.81;100860.69;6153816;23;20027;-84
2023/09/06 14:54:09;;;;;;;7.55;3.58;;;26.80;68.90;;;26.44;40.53;100852.50;6155700;23;20377;-83
2023/09/06 14:56:38;;;;;;;5.80;3.13;;;26.80;68.30;;;26.45;41.48;100856.88;6153474;23;20030;-83
2023/09/06 14:59:05;;;;;;;5.00;3.10;;;26.80;69.70;;;26.52;40.98;100857.25;6154871;23;20024;-83
2023/09/06 15:01:33;;;;;;;8.40;3.30;;;26.90;68.50;;;26.62;40.48;100862.47;6154958;23;20013;-84